Time;durP1;ratioP1;P1;durP2;ratioP2;P2;SDS_P1;SDS_P2;PMS_P1;PMS_P2;Temp;Humidity;BMP_temperature;BMP_pressure;BME280_temperature;BME280_humidity;BME280_pressure;Samples;Min_cycle;Max_cycle;Signal;HPM_P1;HPM_P2
2021/06/01 00:01:22;;;;;;;5.82;2.83;;;;;;;19.16;61.28;101037.97;144994;564;5002;-76
2021/06/01 00:03:49;;;;;;;3.08;2.78;;;;;;;18.95;61.91;101036.22;144994;604;5002;-77
2021/06/01 00:06:16;;;;;;;3.20;2.90;;;;;;;18.96;61.79;101028.34;144994;595;5002;-76
2021/06/01 00:08:43;;;;;;;3.17;2.87;;;;;;;18.74;62.52;101024.78;144994;566;5002;-77
2021/06/01 00:11:11;;;;;;;3.83;2.95;;;;;;;18.73;63.06;101027.41;144994;609;5002;-77
2021/06/01 00:13:38;;;;;;;4.25;3.00;;;;;;;18.54;63.26;101035.25;144994;604;5002;-76
2021/06/01 00:16:07;;;;;;;3.33;2.97;;;;;;;18.51;63.63;101032.63;144994;586;5002;-76
2021/06/01 00:18:34;;;;;;;2.80;2.60;;;;;;;18.28;64.32;101024.69;144994;569;5002;-77
2021/06/01 00:21:02;;;;;;;4.57;2.85;;;;;;;18.24;64.55;101036.06;144994;570;5002;-77
2021/06/01 00:23:29;;;;;;;6.97;3.08;;;;;;;18.24;64.11;101030.81;144994;583;5002;-77
2021/06/01 00:25:55;;;;;;;2.90;2.70;;;;;;;18.19;63.77;101032.53;144994;597;5002;-77
2021/06/01 00:28:21;;;;;;;4.07;3.00;;;;;;;18.18;63.42;101033.41;144994;575;5002;-76
2021/06/01 00:30:48;;;;;;;4.97;3.30;;;;;;;18.14;62.27;101035.16;144994;590;5002;-77
2021/06/01 00:33:14;;;;;;;4.40;3.15;;;;;;;18.11;62.75;101033.37;144993;598;5002;-77
2021/06/01 00:35:41;;;;;;;3.62;3.10;;;;;;;18.02;63.09;101035.09;144994;594;5002;-75
2021/06/01 00:38:07;;;;;;;3.03;2.62;;;;;;;17.85;62.21;101035.88;144994;623;5002;-76
2021/06/01 00:40:34;;;;;;;5.82;3.12;;;;;;;17.77;62.31;101045.47;144994;582;5002;-76
2021/06/01 00:43:01;;;;;;;3.22;2.92;;;;;;;17.75;61.54;101036.69;144994;591;5002;-76
2021/06/01 00:45:28;;;;;;;3.50;3.20;;;;;;;17.76;62.09;101033.19;144994;581;5002;-76
2021/06/01 00:47:55;;;;;;;4.30;3.33;;;;;;;17.75;61.54;101039.31;144994;582;5002;-77
2021/06/01 00:50:24;;;;;;;3.45;3.17;;;;;;;17.68;61.42;101030.53;144994;644;5002;-77
2021/06/01 00:52:51;;;;;;;3.35;3.00;;;;;;;17.71;61.50;101035.78;144994;574;5002;-75
2021/06/01 00:55:18;;;;;;;4.37;3.15;;;;;;;17.74;61.92;101029.69;144994;565;5012;-77
2021/06/01 00:57:44;;;;;;;5.37;3.03;;;;;;;17.86;62.09;101028.88;144994;574;5002;-76
2021/06/01 01:02:59;;;;;;;3.67;3.28;;;;;;;18.05;61.83;101020.22;144994;704;5004;-77
2021/06/01 01:05:33;;;;;;;3.30;3.00;;;;;;;18.17;61.33;101023.78;144994;606;5004;-77
2021/06/01 01:08:54;;;;;;;4.90;3.28;;;;;;;18.31;61.58;101015.06;144994;738;5004;-77
2021/06/01 01:11:59;;;;;;;3.25;2.97;;;;;;;18.47;60.94;101004.59;144994;605;5002;-77
2021/06/01 01:14:34;;;;;;;3.47;3.17;;;;;;;18.50;61.01;101015.12;144993;592;5004;-76
2021/06/01 01:17:05;;;;;;;3.70;3.40;;;;;;;18.64;60.98;101023.00;144994;668;5002;-77
2021/06/01 01:20:17;;;;;;;3.25;2.92;;;;;;;18.62;61.43;101022.12;144994;579;5002;-78
2021/06/01 01:22:47;;;;;;;3.92;3.22;;;;;;;18.59;61.07;101015.09;144994;567;5002;-77
2021/06/01 01:26:01;;;;;;;5.50;3.42;;;;;;;18.66;60.67;101018.66;144994;559;5002;-78
2021/06/01 01:29:15;;;;;;;4.25;3.70;;;;;;;18.68;61.84;101027.41;144994;614;5002;-77
2021/06/01 01:31:50;;;;;;;6.82;3.80;;;;;;;18.68;61.67;101024.78;144994;590;5002;-76
2021/06/01 01:34:18;;;;;;;4.82;3.92;;;;;;;18.73;61.16;101020.37;144994;585;5002;-78
2021/06/01 01:36:47;;;;;;;5.40;3.62;;;;;;;18.57;61.71;101034.41;144994;553;5002;-76
2021/06/01 01:39:19;;;;;;;4.37;3.97;;;;;;;18.73;61.07;101022.16;144994;694;5002;-78
2021/06/01 01:41:47;;;;;;;3.80;3.50;;;;;;;18.66;61.14;101026.53;144994;577;5002;-78
2021/06/01 01:44:17;;;;;;;4.12;3.72;;;;;;;18.71;60.85;101037.03;144994;691;5002;-76
2021/06/01 01:46:54;;;;;;;5.62;3.37;;;;;;;18.50;60.88;101036.16;144994;569;5002;-76
2021/06/01 01:49:24;;;;;;;4.50;3.33;;;;;;;18.36;59.11;101033.47;144994;569;5002;-77
2021/06/01 01:51:58;;;;;;;3.85;3.42;;;;;;;18.14;58.84;101027.28;144994;585;5002;-76
2021/06/01 01:54:31;;;;;;;3.55;3.25;;;;;;;18.05;58.33;101024.59;144994;563;5002;-77
2021/06/01 01:57:11;;;;;;;3.75;3.40;;;;;;;18.04;59.11;101014.97;144994;569;5002;-77
2021/06/01 01:59:39;;;;;;;5.25;3.42;;;;;;;18.14;57.58;101016.75;144994;586;5002;-76
2021/06/01 02:02:10;;;;;;;4.93;3.55;;;;;;;18.07;56.90;101023.75;144994;585;5002;-77
2021/06/01 02:04:38;;;;;;;5.03;3.75;;;;;;;18.06;58.87;101021.97;144994;576;5002;-77
2021/06/01 02:07:06;;;;;;;4.10;3.15;;;;;;;18.00;56.80;101018.47;144994;606;5002;-77
2021/06/01 02:09:33;;;;;;;3.40;3.10;;;;;;;17.86;55.57;101021.00;144994;585;5002;-77
2021/06/01 02:11:59;;;;;;;3.65;3.25;;;;;;;17.89;56.65;101015.78;144994;586;5002;-77
2021/06/01 02:14:27;;;;;;;3.55;3.25;;;;;;;17.77;55.01;101011.34;144994;577;5002;-77
2021/06/01 02:16:57;;;;;;;5.32;3.40;;;;;;;17.77;54.73;101009.56;144994;591;5002;-76
2021/06/01 02:19:24;;;;;;;3.92;3.53;;;;;;;17.80;54.52;101008.72;144994;750;5002;-76
2021/06/01 02:22:04;;;;;;;4.40;3.83;;;;;;;17.89;55.90;101000.03;144994;613;5002;-77
2021/06/01 02:25:04;;;;;;;4.55;3.78;;;;;;;17.87;54.47;100992.09;144994;600;5002;-75
2021/06/01 02:27:40;;;;;;;4.20;3.37;;;;;;;17.86;54.27;101002.59;144994;605;5002;-76
2021/06/01 02:30:28;;;;;;;3.67;3.00;;;;;;;17.79;53.58;100998.22;144994;566;5002;-77
2021/06/01 02:32:57;;;;;;;3.28;2.97;;;;;;;17.89;53.71;101008.78;144994;592;5004;-78
2021/06/01 02:35:38;;;;;;;3.95;3.55;;;;;;;17.89;53.17;101011.41;144994;597;5004;-76
2021/06/01 02:38:07;;;;;;;3.95;3.47;;;;;;;17.87;52.55;100996.50;144994;568;5004;-77
2021/06/01 02:40:35;;;;;;;4.85;3.30;;;;;;;17.77;52.60;101001.69;144994;570;5004;-77
2021/06/01 02:43:08;;;;;;;3.85;3.45;;;;;;;17.79;53.00;101003.47;144994;604;5005;-74
2021/06/01 02:45:37;;;;;;;3.87;3.33;;;;;;;17.75;52.50;101010.44;144994;562;5004;-78
2021/06/01 02:48:05;;;;;;;4.12;3.10;;;;;;;17.85;52.19;101013.97;144994;597;5004;-77
2021/06/01 02:50:34;;;;;;;3.65;3.20;;;;;;;17.87;52.12;101015.75;144994;582;5005;-75
2021/06/01 02:53:03;;;;;;;4.57;3.20;;;;;;;17.82;52.39;101021.88;144994;667;5004;-77
2021/06/01 02:55:30;;;;;;;5.30;3.10;;;;;;;17.80;52.12;101019.22;144994;616;5004;-76
2021/06/01 02:57:57;;;;;;;4.22;3.40;;;;;;;17.78;53.28;101020.94;144994;601;5005;-77
2021/06/01 03:00:26;;;;;;;5.12;3.30;;;;;;;17.90;52.16;101026.31;144994;569;5004;-74
2021/06/01 03:02:53;;;;;;;4.82;3.17;;;;;;;18.06;51.55;101021.13;144994;671;5004;-76
2021/06/01 03:05:20;;;;;;;4.47;3.10;;;;;;;18.13;50.56;101022.88;144994;568;5004;-74
2021/06/01 03:07:53;;;;;;;4.55;2.87;;;;;;;18.07;52.71;101026.38;144994;587;5004;-77
2021/06/01 03:10:21;;;;;;;5.15;3.70;;;;;;;18.05;50.79;101029.84;144994;580;4568;-75
2021/06/01 03:12:53;;;;;;;4.10;3.70;;;;;;;17.93;50.31;101028.94;144994;670;4571;-77
2021/06/01 03:15:22;;;;;;;3.70;3.03;;;;;;;18.05;51.22;101035.12;144994;608;4576;-77
2021/06/01 03:17:48;;;;;;;3.35;2.90;;;;;;;17.95;50.77;101039.44;144992;567;6004;-77
2021/06/01 03:20:15;;;;;;;3.42;3.12;;;;;;;18.08;53.03;101032.50;144992;603;6004;-77
2021/06/01 03:22:42;;;;;;;6.93;3.10;;;;;;;17.93;50.56;101030.69;144992;666;6004;-76
2021/06/01 03:25:09;;;;;;;4.43;3.10;;;;;;;18.05;51.51;101040.37;144992;561;6004;-77
2021/06/01 03:27:36;;;;;;;3.95;3.37;;;;;;;18.00;50.46;101036.84;144992;618;6004;-78
2021/06/01 03:30:07;;;;;;;5.35;3.37;;;;;;;17.91;50.74;101042.91;144991;574;6000;-77
2021/06/01 03:32:35;;;;;;;3.55;3.25;;;;;;;18.02;50.99;101037.72;144992;585;6002;-77
2021/06/01 03:35:01;;;;;;;6.87;3.33;;;;;;;17.93;51.29;101033.31;144992;663;6002;-76
2021/06/01 03:37:28;;;;;;;3.83;3.03;;;;;;;17.90;51.04;101035.94;144992;766;6002;-75
2021/06/01 03:39:54;;;;;;;4.47;3.20;;;;;;;17.86;51.30;101035.00;144992;597;6002;-76
2021/06/01 03:42:21;;;;;;;5.70;3.55;;;;;;;17.89;52.07;101031.53;144992;575;6002;-76
2021/06/01 03:44:47;;;;;;;4.00;3.17;;;;;;;17.86;51.91;101032.34;144992;565;6002;-75
2021/06/01 03:47:14;;;;;;;5.70;3.40;;;;;;;17.90;52.59;101035.94;144992;600;6002;-76
2021/06/01 03:49:40;;;;;;;4.10;3.22;;;;;;;17.97;52.64;101035.06;144992;690;6002;-77
2021/06/01 03:52:08;;;;;;;5.30;3.35;;;;;;;18.04;52.86;101039.50;144992;600;6002;-76
2021/06/01 03:54:36;;;;;;;4.45;3.17;;;;;;;18.00;52.02;101039.47;144992;645;6002;-76
2021/06/01 03:57:03;;;;;;;6.93;3.80;;;;;;;18.04;52.32;101042.12;144992;604;6002;-77
2021/06/01 03:59:30;;;;;;;4.78;3.45;;;;;;;18.08;52.88;101046.50;144992;569;6002;-75
2021/06/01 04:01:56;;;;;;;6.95;3.78;;;;;;;18.19;53.03;101045.69;144992;563;6002;-77
2021/06/01 04:04:23;;;;;;;8.55;3.80;;;;;;;18.20;53.38;101055.28;144992;599;6002;-76
2021/06/01 04:06:50;;;;;;;10.35;3.60;;;;;;;18.07;53.49;101055.28;144992;607;6002;-76
2021/06/01 04:09:16;;;;;;;5.82;3.75;;;;;;;18.21;53.66;101057.06;144992;618;6002;-78
2021/06/01 04:11:43;;;;;;;9.35;4.15;;;;;;;18.29;53.95;101057.97;144992;613;6002;-76
2021/06/01 04:14:10;;;;;;;9.73;3.75;;;;;;;18.44;53.28;101051.91;144992;610;6002;-77
2021/06/01 04:16:36;;;;;;;6.40;4.70;;;;;;;18.55;53.34;101059.78;144992;619;6002;-78
2021/06/01 04:19:03;;;;;;;11.50;4.80;;;;;;;18.56;53.49;101053.66;144992;571;6002;-81
2021/06/01 04:21:30;;;;;;;8.55;4.60;;;;;;;18.55;53.83;101055.44;144992;586;6002;-76
2021/06/01 04:23:58;;;;;;;8.10;4.20;;;;;;;18.59;54.04;101058.94;144992;657;6002;-78
2021/06/01 04:26:28;;;;;;;7.80;4.15;;;;;;;18.60;53.79;101060.69;144992;575;6002;-75
2021/06/01 04:28:56;;;;;;;6.32;4.05;;;;;;;18.43;54.65;101072.03;144992;731;6002;-76
2021/06/01 04:31:23;;;;;;;9.18;3.95;;;;;;;18.30;54.07;101057.09;144992;585;6002;-77
2021/06/01 04:33:50;;;;;;;6.07;4.28;;;;;;;18.31;56.42;101059.75;144992;582;6002;-75
2021/06/01 04:36:18;;;;;;;9.95;5.10;;;;;;;18.51;57.10;101058.03;144992;571;6002;-78
2021/06/01 04:38:45;;;;;;;13.18;5.53;;;;;;;18.54;58.15;101065.94;144992;651;6002;-78
2021/06/01 04:41:12;;;;;;;10.82;5.45;;;;;;;18.54;56.04;101056.28;144992;591;6002;-80
2021/06/01 04:43:40;;;;;;;9.23;5.57;;;;;;;18.71;58.16;101061.59;144992;596;6002;-76
2021/06/01 04:46:07;;;;;;;5.93;4.45;;;;;;;18.71;56.70;101065.94;144992;596;6002;-78
2021/06/01 04:48:34;;;;;;;10.27;5.20;;;;;;;18.85;55.57;101057.25;144992;604;6002;-76
2021/06/01 04:51:02;;;;;;;6.62;4.05;;;;;;;18.67;58.14;101059.81;144992;597;6002;-77
2021/06/01 04:53:30;;;;;;;9.25;3.90;;;;;;;18.59;57.87;101058.94;144991;574;6002;-77
2021/06/01 04:56:03;;;;;;;6.68;3.65;;;;;;;18.54;57.02;101058.91;144992;569;6002;-77
2021/06/01 04:58:32;;;;;;;6.25;3.17;;;;;;;18.43;57.26;101058.88;144992;593;6002;-77
2021/06/01 05:01:00;;;;;;;5.80;3.03;;;;;;;18.44;56.60;101058.03;144992;646;6002;-77
2021/06/01 05:03:27;;;;;;;4.32;2.80;;;;;;;18.58;56.29;101052.81;144992;711;6002;-77
2021/06/01 05:05:55;;;;;;;4.70;2.85;;;;;;;18.68;56.24;101058.94;144992;623;6002;-79
2021/06/01 05:08:23;;;;;;;3.00;2.70;;;;;;;18.78;56.09;101049.31;144992;636;6002;-77
2021/06/01 05:10:54;;;;;;;7.40;3.62;;;;;;;18.92;55.39;101052.00;144992;587;6002;-77
2021/06/01 05:13:23;;;;;;;6.62;4.22;;;;;;;19.16;55.75;101049.38;144992;576;6002;-78
2021/06/01 05:15:53;;;;;;;4.43;3.72;;;;;;;19.35;55.69;101049.34;144992;565;6002;-79
2021/06/01 05:18:23;;;;;;;3.75;2.95;;;;;;;19.44;53.81;101049.34;144992;588;6002;-78
2021/06/01 05:20:53;;;;;;;5.72;3.37;;;;;;;19.54;53.97;101051.06;144991;598;6002;-77
2021/06/01 05:23:21;;;;;;;6.55;3.85;;;;;;;19.71;53.52;101055.41;144992;631;6002;-78
2021/06/01 05:25:49;;;;;;;9.73;3.42;;;;;;;19.84;54.38;101057.19;144992;598;6002;-80
2021/06/01 05:28:16;;;;;;;9.10;4.15;;;;;;;19.91;53.91;101056.25;144992;575;6002;-80
2021/06/01 05:33:31;;;;;;;7.90;4.15;;;;;;;20.05;54.01;101066.75;144992;600;6004;-80
2021/06/01 05:35:58;;;;;;;12.73;6.72;;;;;;;20.07;52.58;101062.34;144992;571;6004;-80
2021/06/01 05:38:26;;;;;;;5.32;3.10;;;;;;;20.07;52.06;101061.50;144992;600;6004;-77
2021/06/01 05:40:54;;;;;;;3.67;2.45;;;;;;;19.89;50.54;101057.16;144992;644;6004;-78
2021/06/01 05:43:20;;;;;;;3.45;2.55;;;;;;;20.14;53.79;101060.59;144992;677;6004;-77
2021/06/01 05:45:48;;;;;;;3.30;2.37;;;;;;;20.24;50.68;101064.94;144992;606;6004;-78
2021/06/01 05:48:14;;;;;;;3.70;2.50;;;;;;;20.13;50.23;101064.09;144992;566;6004;-78
2021/06/01 05:50:43;;;;;;;2.90;2.40;;;;;;;20.30;52.82;101062.25;144992;569;6004;-78
2021/06/01 05:53:10;;;;;;;3.42;2.10;;;;;;;20.41;50.51;101067.50;144992;581;6004;-78
2021/06/01 05:55:38;;;;;;;5.03;2.53;;;;;;;20.49;52.71;101062.19;144992;597;6004;-76
2021/06/01 05:58:05;;;;;;;4.00;2.60;;;;;;;20.45;50.03;101063.06;144992;605;6004;-77
2021/06/01 06:00:32;;;;;;;4.20;2.30;;;;;;;20.36;49.92;101063.13;144992;632;6004;-78
2021/06/01 06:03:01;;;;;;;4.28;2.60;;;;;;;20.53;52.70;101069.16;144992;589;6004;-77
2021/06/01 06:05:27;;;;;;;4.22;2.45;;;;;;;20.50;49.88;101063.91;144992;562;6004;-79
2021/06/01 06:07:54;;;;;;;4.35;2.50;;;;;;;20.54;52.66;101067.44;144992;608;6004;-78
2021/06/01 06:10:21;;;;;;;4.20;2.47;;;;;;;20.68;52.72;101059.44;144992;599;6004;-76
2021/06/01 06:12:47;;;;;;;3.83;2.90;;;;;;;20.77;50.12;101054.97;144992;571;6004;-77
2021/06/01 06:15:17;;;;;;;5.18;2.83;;;;;;;20.83;49.61;101059.34;144992;614;6004;-79
2021/06/01 06:18:07;;;;;;;4.00;2.40;;;;;;;20.65;49.00;101061.22;144992;602;6004;-79
2021/06/01 06:20:34;;;;;;;5.57;3.42;;;;;;;20.66;48.17;101062.09;144992;564;6002;-76
2021/06/01 06:23:02;;;;;;;3.80;2.65;;;;;;;20.69;50.83;101067.34;144992;587;6002;-81
2021/06/01 06:25:28;;;;;;;4.15;2.50;;;;;;;20.80;50.50;101067.28;144992;600;6002;-76
2021/06/01 06:27:55;;;;;;;5.35;3.20;;;;;;;20.87;50.97;101068.09;144992;617;6002;-79
2021/06/01 06:30:23;;;;;;;4.22;3.00;;;;;;;20.90;50.88;101070.72;144992;621;6002;-76
2021/06/01 06:32:51;;;;;;;3.50;2.45;;;;;;;20.89;48.89;101069.00;144992;580;6002;-82
2021/06/01 06:35:17;;;;;;;4.32;2.80;;;;;;;20.61;49.14;101077.91;144992;599;6002;-75
2021/06/01 06:37:44;;;;;;;9.45;2.83;;;;;;;20.64;50.19;101077.91;144992;726;6002;-76
2021/06/01 06:40:11;;;;;;;3.05;2.40;;;;;;;20.72;49.27;101087.56;144991;625;6002;-75
2021/06/01 06:42:38;;;;;;;3.25;2.50;;;;;;;20.70;49.51;101082.28;144992;610;6002;-77
2021/06/01 06:45:07;;;;;;;5.03;2.62;;;;;;;20.75;50.15;101090.19;144992;608;6002;-77
2021/06/01 06:47:55;;;;;;;4.05;2.80;;;;;;;20.75;49.58;101080.50;144992;616;6002;-76
2021/06/01 06:50:26;;;;;;;3.58;2.85;;;;;;;20.86;50.58;101088.34;144992;655;6002;-77
2021/06/01 06:52:53;;;;;;;5.22;2.87;;;;;;;20.99;50.61;101084.72;144992;618;6002;-77
2021/06/01 06:55:19;;;;;;;6.82;3.58;;;;;;;20.99;49.99;101083.84;144992;571;6002;-76
2021/06/01 06:57:46;;;;;;;7.50;5.62;;;;;;;21.00;50.49;101086.47;144992;591;6002;-77
2021/06/01 07:00:16;;;;;;;4.37;3.37;;;;;;;20.94;51.25;101086.53;144992;596;6002;-76
2021/06/01 07:02:43;;;;;;;4.43;3.40;;;;;;;20.95;49.92;101088.28;144992;650;6002;-77
2021/06/01 07:05:16;;;;;;;6.28;3.35;;;;;;;20.97;51.55;101090.91;144992;569;6002;-76
2021/06/01 07:07:42;;;;;;;4.85;3.30;;;;;;;21.09;50.40;101087.28;144992;574;6002;-76
2021/06/01 07:10:12;;;;;;;4.87;3.45;;;;;;;21.04;49.98;101079.41;144992;563;6002;-77
2021/06/01 07:12:41;;;;;;;3.80;3.50;;;;;;;21.09;48.72;101079.38;144992;596;6002;-78
2021/06/01 07:15:13;;;;;;;6.07;4.03;;;;;;;21.19;48.95;101086.34;144992;692;6002;-76
2021/06/01 07:17:44;;;;;;;5.72;4.10;;;;;;;21.23;48.00;101084.53;144992;616;6002;-77
2021/06/01 07:20:13;;;;;;;11.80;8.40;;;;;;;21.34;47.75;101083.56;144992;681;6002;-76
2021/06/01 07:22:40;;;;;;;25.90;16.55;;;;;;;21.42;50.20;101091.41;144992;622;6002;-76
2021/06/01 07:25:08;;;;;;;10.98;7.12;;;;;;;21.52;48.38;101086.94;144992;573;6002;-76
2021/06/01 07:27:34;;;;;;;6.07;4.68;;;;;;;21.58;48.06;101088.66;144992;583;6002;-77
2021/06/01 07:30:01;;;;;;;5.82;4.10;;;;;;;21.63;50.14;101089.47;144992;625;6002;-77
2021/06/01 07:32:28;;;;;;;3.28;2.97;;;;;;;21.68;44.92;101087.66;144992;579;6002;-76
2021/06/01 07:34:56;;;;;;;3.95;2.80;;;;;;;21.67;45.32;101091.22;144992;564;6002;-76
2021/06/01 07:37:22;;;;;;;2.97;2.60;;;;;;;21.83;49.39;101094.56;144992;596;6002;-77
2021/06/01 07:39:49;;;;;;;7.20;5.28;;;;;;;22.03;46.69;101089.03;144992;568;6002;-76
2021/06/01 07:42:15;;;;;;;13.48;2.67;;;;;;;22.14;49.15;101092.44;144992;570;6002;-76
2021/06/01 07:44:45;;;;;;;3.20;2.90;;;;;;;22.33;49.26;101084.31;144992;645;6002;-77
2021/06/01 07:47:11;;;;;;;6.75;4.70;;;;;;;22.50;48.76;101092.03;144992;666;6002;-77
2021/06/01 07:49:37;;;;;;;7.50;5.30;;;;;;;22.62;48.59;101087.44;144992;572;6002;-78
2021/06/01 07:52:04;;;;;;;18.37;12.65;;;;;;;22.62;46.78;101091.81;144992;642;6002;-78
2021/06/01 07:54:32;;;;;;;16.15;11.20;;;;;;;22.68;45.92;101083.81;144992;614;6002;-76
2021/06/01 07:57:00;;;;;;;15.00;9.13;;;;;;;22.70;47.80;101083.78;144991;567;6002;-77
2021/06/01 07:59:26;;;;;;;11.18;7.80;;;;;;;22.73;45.18;101084.63;144992;586;6002;-77
2021/06/01 08:01:53;;;;;;;6.00;4.47;;;;;;;22.58;41.30;101064.53;144992;571;6002;-77
2021/06/01 08:04:19;;;;;;;8.23;3.87;;;;;;;22.49;40.60;101080.53;144992;627;6002;-76
2021/06/01 08:06:49;;;;;;;5.75;4.05;;;;;;;22.39;41.91;101074.50;144992;592;6002;-76
2021/06/01 08:09:15;;;;;;;4.32;3.70;;;;;;;22.62;45.53;101087.44;144992;573;6002;-78
2021/06/01 08:11:44;;;;;;;5.28;4.78;;;;;;;22.46;40.95;101084.13;144992;579;6002;-76
2021/06/01 08:14:15;;;;;;;6.40;4.87;;;;;;;22.43;39.66;101077.97;144992;585;6002;-77
2021/06/01 08:16:44;;;;;;;5.85;4.07;;;;;;;22.71;41.02;101082.91;144992;580;6002;-77
2021/06/01 08:19:17;;;;;;;4.95;3.80;;;;;;;22.57;39.73;101077.78;144992;587;6002;-77
2021/06/01 08:24:27;;;;;;;5.43;3.60;;;;;;;22.66;39.16;101082.09;144992;653;6004;-77
2021/06/01 08:26:54;;;;;;;3.42;3.00;;;;;;;22.75;38.76;101076.69;144992;576;6004;-77
2021/06/01 08:29:21;;;;;;;4.20;2.97;;;;;;;22.86;40.58;101074.72;144992;562;6004;-77
2021/06/01 08:31:47;;;;;;;8.68;6.10;;;;;;;22.77;38.27;101080.16;144991;629;6000;-79
2021/06/01 08:34:15;;;;;;;7.47;5.57;;;;;;;22.80;36.33;101070.41;144992;610;6002;-77
2021/06/01 08:36:41;;;;;;;8.80;4.65;;;;;;;22.91;37.55;101064.06;144992;618;6002;-77
2021/06/01 08:39:09;;;;;;;2.90;2.65;;;;;;;23.06;39.01;101066.44;144992;563;6002;-78
2021/06/01 08:41:37;;;;;;;2.95;2.65;;;;;;;22.89;34.90;101056.16;144992;586;6011;-77
2021/06/01 08:44:05;;;;;;;5.37;3.30;;;;;;;22.92;38.16;101063.16;144992;618;6002;-77
2021/06/01 08:46:33;;;;;;;4.00;2.40;;;;;;;22.81;35.43;101061.56;144992;570;6002;-77
2021/06/01 08:49:00;;;;;;;2.83;2.20;;;;;;;22.89;38.62;101065.84;144992;617;6002;-76
2021/06/01 08:51:27;;;;;;;3.00;2.47;;;;;;;22.91;35.67;101061.44;144992;579;6002;-77
2021/06/01 08:53:57;;;;;;;3.33;2.47;;;;;;;22.99;35.77;101057.75;144992;675;6002;-76
2021/06/01 08:56:25;;;;;;;3.22;2.50;;;;;;;22.96;35.80;101056.94;144992;591;6002;-77
2021/06/01 08:58:51;;;;;;;4.20;2.75;;;;;;;23.04;36.53;101052.38;144992;627;6002;-76
2021/06/01 09:01:19;;;;;;;3.42;2.90;;;;;;;23.09;37.44;101052.34;144992;598;6002;-77
2021/06/01 09:03:54;;;;;;;2.97;2.50;;;;;;;23.17;38.16;101059.22;144992;616;6002;-76
2021/06/01 09:09:42;;;;;;;3.00;2.37;;;;;;;23.29;36.60;101047.56;144992;587;6004;-76
2021/06/01 09:15:24;;;;;;;3.53;2.75;;;;;;;23.20;36.25;101038.91;144992;570;6002;-79
2021/06/01 09:23:22;;;;;;;5.15;2.92;;;;;;;23.11;37.28;101037.28;144992;569;6002;-77
2021/06/01 09:25:57;;;;;;;3.15;2.78;;;;;;;23.18;37.24;101033.66;144992;570;6002;-77
2021/06/01 09:28:23;;;;;;;4.05;2.55;;;;;;;23.18;36.88;101028.34;144992;574;6002;-77
2021/06/01 09:30:59;;;;;;;3.42;2.75;;;;;;;23.32;37.90;101034.28;144993;588;6002;-77
2021/06/01 09:33:31;;;;;;;3.05;2.70;;;;;;;23.46;36.68;101031.34;144993;566;6002;-77
2021/06/01 09:35:59;;;;;;;2.80;2.25;;;;;;;23.49;34.79;101030.44;144993;662;6002;-77
2021/06/01 09:38:41;;;;;;;4.15;3.25;;;;;;;23.46;36.60;101033.13;144993;597;6002;-78
2021/06/01 09:41:18;;;;;;;2.87;2.58;;;;;;;23.35;35.42;101022.72;144993;663;6002;-78
2021/06/01 09:43:59;;;;;;;3.62;2.42;;;;;;;23.36;36.30;101027.13;144993;603;6002;-78
2021/06/01 09:46:30;;;;;;;2.83;2.53;;;;;;;23.45;37.73;101026.97;144993;576;6002;-77
2021/06/01 09:49:25;;;;;;;3.75;2.90;;;;;;;23.50;35.63;101027.75;144993;581;6002;-78
2021/06/01 09:52:05;;;;;;;3.53;3.20;;;;;;;23.55;36.20;101031.19;144993;569;6002;-78
2021/06/01 09:54:50;;;;;;;4.57;2.55;;;;;;;23.68;35.14;101028.28;144993;569;6002;-78
2021/06/01 09:57:26;;;;;;;;;;;;;;;23.73;35.36;101021.13;144998;909;6002;-76
2021/06/01 10:00:16;;;;;;;2.42;2.22;;;;;;;23.87;36.69;101004.97;144997;583;6002;-78
2021/06/01 10:02:51;;;;;;;3.17;1.90;;;;;;;23.99;34.15;101007.38;144992;606;6002;-76
2021/06/01 10:05:24;;;;;;;3.85;2.40;;;;;;;23.94;34.40;101008.38;144992;608;6002;-77
2021/06/01 10:07:53;;;;;;;2.90;2.35;;;;;;;24.02;32.92;101006.41;144992;583;6002;-78
2021/06/01 10:10:52;;;;;;;2.67;2.20;;;;;;;24.19;35.28;100998.97;144992;589;6002;-76
2021/06/01 10:13:19;;;;;;;3.30;2.35;;;;;;;24.21;33.04;100996.28;144992;573;6000;-77
2021/06/01 10:15:46;;;;;;;2.25;2.05;;;;;;;24.24;33.46;101001.50;144993;671;6000;-78
2021/06/01 10:18:16;;;;;;;2.65;2.45;;;;;;;24.20;31.74;100998.06;144993;656;6002;-76
2021/06/01 10:20:45;;;;;;;2.95;2.67;;;;;;;24.20;33.75;101002.50;144993;630;6002;-78
2021/06/01 10:23:13;;;;;;;3.08;2.78;;;;;;;24.29;34.62;100989.00;144993;588;6002;-77
2021/06/01 10:25:40;;;;;;;2.97;2.70;;;;;;;24.37;32.94;100986.19;144993;570;6002;-77
2021/06/01 10:28:11;;;;;;;3.10;2.80;;;;;;;24.40;33.76;100987.00;144993;566;6002;-76
2021/06/01 10:30:40;;;;;;;3.58;2.47;;;;;;;24.42;33.63;100979.87;144993;565;6002;-79
2021/06/01 10:33:15;;;;;;;6.95;5.32;;;;;;;24.59;34.64;100976.84;144993;582;6002;-78
2021/06/01 10:35:53;;;;;;;2.90;2.60;;;;;;;24.52;34.04;100964.59;144993;661;6002;-77
2021/06/01 10:50:49;;;;;;;3.15;2.85;;;;;;;24.66;34.17;100948.38;144993;609;6004;-76
2021/06/01 10:53:24;;;;;;;2.50;2.30;;;;;;;24.74;33.46;100942.88;144993;565;6004;-76
2021/06/01 10:56:02;;;;;;;2.62;2.28;;;;;;;24.68;32.40;100938.59;144992;565;6002;-78
2021/06/01 10:59:06;;;;;;;3.60;2.50;;;;;;;24.82;35.54;100930.28;144993;578;6002;-76
2021/06/01 11:01:51;;;;;;;4.03;2.30;;;;;;;24.61;33.27;100923.75;144993;607;6004;-78
2021/06/01 11:04:25;;;;;;;;;;;;;;;24.43;32.11;100917.97;144997;909;6002;-78
2021/06/01 11:07:13;;;;;;;3.10;2.33;;;;;;;24.49;33.15;100908.94;144998;577;5002;-77
2021/06/01 11:09:48;;;;;;;3.85;2.35;;;;;;;24.59;33.23;100907.87;144994;590;5004;-76
2021/06/01 11:12:39;;;;;;;7.12;2.17;;;;;;;24.74;32.80;100900.41;144994;613;5002;-76
2021/06/01 11:15:23;;;;;;;3.40;2.37;;;;;;;24.78;33.58;100907.38;144994;603;5004;-76
2021/06/01 11:17:50;;;;;;;2.90;2.10;;;;;;;24.79;32.98;100888.75;144994;601;5004;-77
2021/06/01 11:20:38;;;;;;;2.00;1.90;;;;;;;24.92;31.30;100889.28;144993;574;6004;-77
2021/06/01 11:23:25;;;;;;;2.42;2.10;;;;;;;24.94;31.67;100887.47;144994;594;5002;-75
2021/06/01 11:34:06;;;;;;;1.77;1.67;;;;;;;25.14;32.14;100878.06;144994;596;5004;-79
2021/06/01 11:36:39;;;;;;;1.85;1.73;;;;;;;25.25;30.10;100867.16;144994;576;5004;-77
2021/06/01 11:39:32;;;;;;;1.87;1.73;;;;;;;25.26;29.36;100864.44;144994;587;5004;-79
2021/06/01 11:44:42;;;;;;;3.22;1.62;;;;;;;25.22;29.89;100860.13;144994;628;5004;-77
2021/06/01 11:47:26;;;;;;;3.45;2.20;;;;;;;25.32;29.30;100852.78;144994;597;5004;-76
2021/06/01 11:52:58;;;;;;;3.00;2.60;;;;;;;25.06;34.32;100866.81;144994;644;5011;-77
2021/06/01 11:55:25;;;;;;;4.45;2.83;;;;;;;24.59;35.93;100849.47;144994;593;5002;-78
2021/06/01 12:03:58;;;;;;;7.15;6.05;;;;;;;23.83;37.67;100836.25;144994;577;5002;-77
2021/06/01 12:12:06;;;;;;;3.97;2.77;;;;;;;23.43;39.78;100830.09;144994;565;5002;-78
2021/06/01 12:17:50;;;;;;;3.45;2.85;;;;;;;23.08;40.38;100826.44;144994;601;5002;-75
2021/06/01 12:20:17;;;;;;;3.05;2.75;;;;;;;22.98;40.20;100822.16;144994;614;5002;-76
2021/06/01 12:22:44;;;;;;;2.60;2.40;;;;;;;22.63;39.45;100821.94;144994;631;5002;-76
2021/06/01 12:25:12;;;;;;;3.92;2.30;;;;;;;22.48;41.07;100806.37;144994;665;5002;-76
2021/06/01 12:28:06;;;;;;;2.53;2.30;;;;;;;22.18;40.71;100810.41;144994;612;5002;-74
2021/06/01 12:33:18;;;;;;;2.67;2.33;;;;;;;22.14;41.29;100817.47;144994;633;5004;-77
2021/06/01 12:44:40;;;;;;;5.85;2.85;;;;;;;22.32;43.06;100821.62;144994;614;5002;-75
2021/06/01 13:12:02;;;;;;;6.45;4.15;;;;;;;21.72;53.11;100989.00;144994;638;5002;-76
2021/06/01 13:13:06;;;;;;;5.30;3.58;;;;;;;21.26;59.66;101015.88;144994;571;5004;-75
2021/06/01 13:21:01;;;;;;;7.30;4.50;;;;;;;21.01;53.38;101030.19;144994;575;5002;-75
2021/06/01 13:40:49;;;;;;;4.32;3.53;;;;;;;21.11;51.31;100979.94;144994;617;5002;-76
2021/06/01 13:46:21;;;;;;;5.40;3.80;;;;;;;21.18;50.76;100979.84;144994;577;5004;-76
2021/06/01 13:49:08;;;;;;;4.70;3.42;;;;;;;21.25;51.39;100969.25;144994;568;5004;-77
2021/06/01 13:57:48;;;;;;;4.82;3.40;;;;;;;21.96;48.49;100968.44;144994;640;5004;-76
2021/06/01 14:00:41;;;;;;;7.50;3.50;;;;;;;22.17;48.38;100969.91;144994;579;5004;-76